createdAt,value
2023-07-18T00:01:39.692Z,37.00
2023-07-18T00:04:08.768Z,33.00
2023-07-18T00:06:39.933Z,35.30
2023-07-18T00:09:08.308Z,34.30
2023-07-18T00:11:37.436Z,31.60
2023-07-18T00:14:06.038Z,31.90
2023-07-18T00:19:02.939Z,33.80
2023-07-18T00:21:31.374Z,33.10
2023-07-18T00:24:00.801Z,31.50
2023-07-18T00:26:29.030Z,33.80
2023-07-18T00:28:57.258Z,36.20
2023-07-18T00:31:25.665Z,35.30
2023-07-18T00:33:53.863Z,34.10
2023-07-18T00:36:23.007Z,33.90
2023-07-18T00:41:20.045Z,33.60
2023-07-18T00:43:48.464Z,30.70
2023-07-18T00:46:17.757Z,33.90
2023-07-18T00:48:46.178Z,32.00
2023-07-18T00:51:14.643Z,31.60
2023-07-18T00:53:43.184Z,34.30
2023-07-18T00:56:11.306Z,37.20
2023-07-18T00:58:40.077Z,34.50
2023-07-18T01:01:08.550Z,33.90
2023-07-18T01:03:40.057Z,34.50
2023-07-18T01:06:11.188Z,76.90
2023-07-18T01:08:41.299Z,53.40
2023-07-18T01:11:09.588Z,45.30
2023-07-18T01:13:37.567Z,39.70
2023-07-18T01:16:05.679Z,37.70
2023-07-18T01:18:34.454Z,31.90
2023-07-18T01:21:03.641Z,30.60
2023-07-18T01:23:31.784Z,30.30
2023-07-18T01:28:28.973Z,30.60
2023-07-18T01:30:57.441Z,32.20
2023-07-18T01:33:25.833Z,28.70
2023-07-18T01:35:54.425Z,29.80
2023-07-18T01:38:22.757Z,31.70
2023-07-18T01:40:50.959Z,31.90
2023-07-18T01:43:19.022Z,34.70
2023-07-18T01:45:47.207Z,30.80
2023-07-18T01:48:15.640Z,27.70
2023-07-18T01:50:44.687Z,28.80
2023-07-18T01:53:12.870Z,28.60
2023-07-18T01:55:42.060Z,31.70
2023-07-18T01:58:10.123Z,27.80
2023-07-18T02:00:38.262Z,32.50
2023-07-18T02:03:07.275Z,32.50
2023-07-18T02:05:35.903Z,29.50
2023-07-18T02:08:04.867Z,33.70
2023-07-18T02:10:34.782Z,29.50
2023-07-18T02:13:04.377Z,31.30
2023-07-18T02:15:33.299Z,28.00
2023-07-18T02:18:01.402Z,28.90
2023-07-18T02:20:30.962Z,28.20
2023-07-18T02:23:01.997Z,27.50
2023-07-18T02:25:30.946Z,21.20
2023-07-18T02:27:59.329Z,25.00
2023-07-18T02:30:29.655Z,24.60
2023-07-18T02:32:58.692Z,25.90
2023-07-18T02:35:27.662Z,26.70
2023-07-18T02:40:25.976Z,23.60
2023-07-18T02:42:54.531Z,23.00
2023-07-18T02:45:22.670Z,22.30
2023-07-18T02:47:50.897Z,25.10
2023-07-18T02:50:19.238Z,23.40
2023-07-18T02:52:47.695Z,22.10
2023-07-18T02:55:15.806Z,18.40
2023-07-18T02:57:43.885Z,21.20
2023-07-18T03:00:21.538Z,22.90
2023-07-18T03:02:50.794Z,19.30
2023-07-18T03:05:20.744Z,18.30
2023-07-18T03:07:49.457Z,19.40
2023-07-18T03:10:17.878Z,18.50
2023-07-18T03:12:47.447Z,15.60
2023-07-18T03:15:17.701Z,17.80
2023-07-18T03:17:45.972Z,17.40
2023-07-18T03:20:21.162Z,17.50
2023-07-18T03:22:51.687Z,17.00
2023-07-18T03:25:22.162Z,15.70
2023-07-18T03:27:51.388Z,18.10
2023-07-18T03:30:19.777Z,16.00
2023-07-18T03:32:49.407Z,14.40
2023-07-18T03:35:17.846Z,15.60
2023-07-18T03:37:45.967Z,17.20
2023-07-18T03:40:17.526Z,16.30
2023-07-18T03:42:46.489Z,14.30
2023-07-18T03:47:44.785Z,16.00
2023-07-18T03:50:15.619Z,15.60
2023-07-18T03:52:44.096Z,14.90
2023-07-18T03:55:12.300Z,18.20
2023-07-18T03:57:41.436Z,14.70
2023-07-18T04:00:18.861Z,14.90
2023-07-18T04:02:49.408Z,17.20
2023-07-18T04:05:19.188Z,14.80
2023-07-18T04:07:48.106Z,15.50
2023-07-18T04:10:16.839Z,16.40
2023-07-18T04:12:45.461Z,15.20
2023-07-18T04:15:14.908Z,11.80
2023-07-18T04:17:43.173Z,13.60
2023-07-18T04:20:11.992Z,14.10
2023-07-18T04:25:09.317Z,14.50
2023-07-18T04:30:07.111Z,12.20
2023-07-18T04:32:35.223Z,13.50
2023-07-18T04:35:04.924Z,13.50
2023-07-18T04:37:33.108Z,11.50
2023-07-18T04:42:30.083Z,11.50
2023-07-18T04:44:58.823Z,11.90
2023-07-18T04:47:27.891Z,11.90
2023-07-18T04:49:57.110Z,12.20
2023-07-18T04:52:25.216Z,10.60
2023-07-18T04:54:53.617Z,10.50
2023-07-18T04:57:22.377Z,11.70
2023-07-18T04:59:50.631Z,9.80
2023-07-18T05:02:18.764Z,10.40
2023-07-18T05:04:46.801Z,10.40
2023-07-18T05:07:16.340Z,14.40
2023-07-18T05:09:47.570Z,8.90
2023-07-18T05:12:15.963Z,10.30
2023-07-18T05:14:44.600Z,9.00
2023-07-18T05:17:12.634Z,10.50
2023-07-18T05:19:40.904Z,10.60
2023-07-18T05:24:37.523Z,10.60
2023-07-18T05:27:06.424Z,11.00
2023-07-18T05:29:34.464Z,9.50
2023-07-18T05:34:30.814Z,8.40
2023-07-18T05:39:29.399Z,8.90
2023-07-18T05:41:58.693Z,7.30
2023-07-18T05:44:26.913Z,8.40
2023-07-18T05:46:55.284Z,9.00
2023-07-18T05:49:23.642Z,7.90
2023-07-18T05:51:51.804Z,8.10
2023-07-18T05:54:20.327Z,7.50
2023-07-18T05:56:48.583Z,9.00
2023-07-18T05:59:16.773Z,9.10
2023-07-18T06:01:45.485Z,8.70
2023-07-18T06:04:17.167Z,7.80
2023-07-18T06:06:46.152Z,7.50
2023-07-18T06:09:14.642Z,7.20
2023-07-18T06:11:43.570Z,6.80
2023-07-18T06:14:12.038Z,9.60
2023-07-18T06:16:40.635Z,6.90
2023-07-18T06:19:08.797Z,6.40
2023-07-18T06:21:37.068Z,7.80
2023-07-18T06:24:18.075Z,7.90
2023-07-18T06:26:50.813Z,8.40
2023-07-18T06:29:21.256Z,10.80
2023-07-18T06:31:50.550Z,7.10
2023-07-18T06:34:20.055Z,8.10
2023-07-18T06:36:48.422Z,6.20
2023-07-18T06:39:18.248Z,6.70
2023-07-18T06:41:46.930Z,11.10
2023-07-18T06:44:16.485Z,6.50
2023-07-18T06:46:45.276Z,6.80
2023-07-18T06:49:14.697Z,7.60
2023-07-18T06:51:43.560Z,7.70
2023-07-18T06:54:11.835Z,7.30
2023-07-18T06:56:41.810Z,8.40
2023-07-18T06:59:10.646Z,8.10
2023-07-18T07:01:38.851Z,7.30
2023-07-18T07:04:07.256Z,6.80
2023-07-18T07:06:42.775Z,6.80
2023-07-18T07:09:14.544Z,6.90
2023-07-18T07:11:44.767Z,7.10
2023-07-18T07:14:13.312Z,7.90
2023-07-18T07:16:42.041Z,7.00
2023-07-18T07:19:10.577Z,7.10
2023-07-18T07:21:38.708Z,6.10
2023-07-18T07:24:07.339Z,7.70
2023-07-18T07:26:38.921Z,6.90
2023-07-18T07:29:08.651Z,7.20
2023-07-18T07:31:38.770Z,6.80
2023-07-18T07:34:13.561Z,5.90
2023-07-18T07:36:41.697Z,7.00
2023-07-18T07:39:09.887Z,6.40
2023-07-18T07:41:38.155Z,6.30
2023-07-18T07:44:06.180Z,7.30
2023-07-18T07:46:34.259Z,6.10
2023-07-18T07:49:05.386Z,6.60
2023-07-18T07:51:34.862Z,6.80
2023-07-18T07:54:03.027Z,6.60
2023-07-18T07:56:31.485Z,6.20
2023-07-18T08:01:31.031Z,9.20
2023-07-18T08:03:59.246Z,6.50
2023-07-18T08:06:27.563Z,5.30
2023-07-18T08:08:55.980Z,5.70
2023-07-18T08:11:24.265Z,6.50
2023-07-18T08:13:54.616Z,6.50
2023-07-18T08:16:22.985Z,6.60
2023-07-18T08:18:51.119Z,6.20
2023-07-18T08:21:20.513Z,5.90
2023-07-18T08:23:49.227Z,6.20
2023-07-18T08:26:17.319Z,5.10
2023-07-18T08:28:45.378Z,5.80
2023-07-18T08:31:13.459Z,6.20
2023-07-18T08:33:41.508Z,6.50
2023-07-18T08:36:09.704Z,5.50
2023-07-18T08:38:38.396Z,5.80
2023-07-18T08:41:08.975Z,6.10
2023-07-18T08:43:38.432Z,5.30
2023-07-18T08:46:08.400Z,5.60
2023-07-18T08:48:36.595Z,5.10
2023-07-18T08:51:04.743Z,5.20
2023-07-18T08:53:35.519Z,4.70
2023-07-18T08:56:09.630Z,8.70
2023-07-18T08:58:38.855Z,5.10
2023-07-18T09:01:09.181Z,6.20
2023-07-18T09:03:37.605Z,5.60
2023-07-18T09:06:19.438Z,7.10
2023-07-18T09:08:48.305Z,7.80
2023-07-18T09:11:22.214Z,5.90
2023-07-18T09:13:50.910Z,5.80
2023-07-18T09:16:23.301Z,5.30
2023-07-18T09:18:56.673Z,4.60
2023-07-18T09:21:24.996Z,5.00
2023-07-18T09:23:54.125Z,6.00
2023-07-18T09:26:23.111Z,8.10
2023-07-18T09:28:52.733Z,8.10
2023-07-18T09:31:23.903Z,4.90
2023-07-18T09:33:55.245Z,5.10
2023-07-18T09:36:25.815Z,4.10
2023-07-18T09:38:54.039Z,4.40
2023-07-18T09:41:24.002Z,4.70
2023-07-18T09:44:02.764Z,4.30
2023-07-18T09:46:44.733Z,4.90
2023-07-18T09:49:14.701Z,4.70
2023-07-18T09:51:49.332Z,4.70
2023-07-18T09:54:18.471Z,6.60
2023-07-18T09:56:48.129Z,4.90
2023-07-18T09:59:17.623Z,5.00
2023-07-18T10:01:46.723Z,5.40
2023-07-18T10:04:15.098Z,4.60
2023-07-18T10:06:43.947Z,5.90
2023-07-18T10:09:13.129Z,5.80
2023-07-18T10:11:59.637Z,5.90
2023-07-18T10:15:01.478Z,5.90
2023-07-18T10:17:32.662Z,9.10
2023-07-18T10:20:05.614Z,7.10
2023-07-18T10:22:34.171Z,4.80
2023-07-18T10:25:09.280Z,5.50
2023-07-18T10:27:39.113Z,4.90
2023-07-18T10:30:09.676Z,9.70
2023-07-18T10:32:39.532Z,5.30
2023-07-18T10:35:12.231Z,5.90
2023-07-18T10:37:45.310Z,5.80
2023-07-18T10:40:31.450Z,6.10
2023-07-18T10:43:00.238Z,5.50
2023-07-18T10:45:28.451Z,5.40
2023-07-18T10:47:56.745Z,6.70
2023-07-18T10:50:25.185Z,5.70
2023-07-18T10:52:53.276Z,6.00
2023-07-18T10:57:49.330Z,6.20
2023-07-18T11:00:18.651Z,5.40
2023-07-18T11:02:46.731Z,5.20
2023-07-18T11:05:15.367Z,6.20
2023-07-18T11:07:45.751Z,8.40
2023-07-18T11:10:15.015Z,5.70
2023-07-18T11:12:44.075Z,5.20
2023-07-18T11:15:13.251Z,5.60
2023-07-18T11:17:43.399Z,6.40
2023-07-18T11:20:13.027Z,4.10
2023-07-18T11:22:41.981Z,5.50
2023-07-18T11:25:11.185Z,5.10
2023-07-18T11:27:39.274Z,6.10
2023-07-18T11:30:10.642Z,4.80
2023-07-18T11:32:46.878Z,5.40
2023-07-18T11:35:24.654Z,7.00
2023-07-18T11:37:54.558Z,4.70
2023-07-18T11:40:27.282Z,4.80
2023-07-18T11:42:59.200Z,7.40
2023-07-18T11:45:31.353Z,5.50
2023-07-18T11:48:00.538Z,6.00
2023-07-18T11:50:30.646Z,5.80
2023-07-18T11:53:00.337Z,6.20
2023-07-18T11:55:29.305Z,6.30
2023-07-18T11:57:58.736Z,5.90
2023-07-18T12:00:27.113Z,5.80
2023-07-18T12:02:55.230Z,6.90
2023-07-18T12:05:25.828Z,5.40
2023-07-18T12:07:54.413Z,6.30
2023-07-18T12:10:25.645Z,5.80
2023-07-18T12:12:54.534Z,6.10
2023-07-18T12:15:22.834Z,5.10
2023-07-18T12:17:51.636Z,6.60
2023-07-18T12:20:20.185Z,5.70
2023-07-18T12:22:48.330Z,5.90
2023-07-18T12:27:45.184Z,5.00
2023-07-18T12:32:41.911Z,8.80
2023-07-18T12:35:10.510Z,6.10
2023-07-18T12:37:38.606Z,4.90
2023-07-18T12:40:08.555Z,11.80
2023-07-18T12:42:36.678Z,6.00
2023-07-18T12:45:05.540Z,7.10
2023-07-18T12:47:33.873Z,7.80
2023-07-18T12:50:02.106Z,7.70
2023-07-18T12:54:59.549Z,5.60
2023-07-18T12:57:30.003Z,9.20
2023-07-18T12:59:59.358Z,6.10
2023-07-18T13:02:28.225Z,5.60
2023-07-18T13:04:56.737Z,5.30
2023-07-18T13:09:53.600Z,8.20
2023-07-18T13:12:21.597Z,6.20
2023-07-18T13:17:18.025Z,7.90
2023-07-18T13:24:42.274Z,5.40
2023-07-18T13:29:38.466Z,5.80
2023-07-18T13:32:08.370Z,6.40
2023-07-18T13:34:37.742Z,5.70
2023-07-18T13:37:06.630Z,6.50
2023-07-18T13:39:34.948Z,6.30
2023-07-18T13:42:03.287Z,6.90
2023-07-18T13:46:59.536Z,6.70
2023-07-18T13:52:16.223Z,6.80
2023-07-18T13:54:44.254Z,8.00
2023-07-18T13:57:12.274Z,6.90
2023-07-18T13:59:40.469Z,9.10
2023-07-18T14:04:37.536Z,6.60
2023-07-18T14:07:06.007Z,6.60
2023-07-18T14:09:36.694Z,6.10
2023-07-18T14:12:06.579Z,7.50
2023-07-18T14:14:34.629Z,7.90
2023-07-18T14:19:30.789Z,5.80
2023-07-18T14:29:23.760Z,6.40
2023-07-18T14:31:53.502Z,6.60
2023-07-18T14:34:22.012Z,7.20
2023-07-18T14:36:50.247Z,5.80
2023-07-18T14:39:18.250Z,7.60
2023-07-18T14:41:46.300Z,7.40
2023-07-18T14:44:14.959Z,6.30
2023-07-18T14:46:42.983Z,7.10
2023-07-18T14:51:39.530Z,6.70
2023-07-18T14:59:06.781Z,8.90
2023-07-18T15:01:34.853Z,6.60
2023-07-18T15:04:03.273Z,7.30
2023-07-18T15:06:32.004Z,6.80
2023-07-18T15:09:00.083Z,6.70
2023-07-18T15:11:30.354Z,7.20
2023-07-18T15:13:58.977Z,6.50
2023-07-18T15:16:27.345Z,7.20
2023-07-18T15:18:55.714Z,7.10
2023-07-18T15:21:24.123Z,7.60
2023-07-18T15:23:52.342Z,6.10
2023-07-18T15:26:21.394Z,6.60
2023-07-18T15:28:50.019Z,6.80
2023-07-18T15:31:19.210Z,7.80
2023-07-18T15:33:47.593Z,6.60
2023-07-18T15:38:46.437Z,7.90
2023-07-18T15:41:14.651Z,7.40
2023-07-18T15:43:43.788Z,6.40
2023-07-18T15:46:12.234Z,7.30
2023-07-18T15:51:14.055Z,6.70
2023-07-18T15:56:15.425Z,8.40
2023-07-18T15:58:43.795Z,7.50
2023-07-18T16:01:12.265Z,8.10
2023-07-18T16:03:40.832Z,6.70
2023-07-18T16:06:09.630Z,8.00
2023-07-18T16:08:37.617Z,7.90
2023-07-18T16:11:05.679Z,7.70
2023-07-18T16:13:33.892Z,7.80
2023-07-18T16:16:02.239Z,6.80
2023-07-18T16:18:30.547Z,6.60
2023-07-18T16:20:58.580Z,7.20
2023-07-18T16:23:26.609Z,7.40
2023-07-18T16:25:55.369Z,8.00
2023-07-18T16:28:23.449Z,7.10
2023-07-18T16:30:51.635Z,7.40
2023-07-18T16:33:19.801Z,7.50
2023-07-18T16:35:48.549Z,8.10
2023-07-18T16:38:16.698Z,6.40
2023-07-18T16:40:44.802Z,7.30
2023-07-18T16:43:12.985Z,7.90
2023-07-18T16:48:09.479Z,7.80
2023-07-18T16:50:37.640Z,12.40
2023-07-18T16:53:05.782Z,9.50
2023-07-18T16:55:33.855Z,8.80
2023-07-18T16:58:04.011Z,7.80
2023-07-18T17:00:32.720Z,7.50
2023-07-18T17:07:57.422Z,8.20
2023-07-18T17:10:26.964Z,14.20
2023-07-18T17:12:55.533Z,9.10
2023-07-18T17:17:51.725Z,9.00
2023-07-18T17:20:20.315Z,8.80
2023-07-18T17:22:48.320Z,10.00
2023-07-18T17:25:16.452Z,10.10
2023-07-18T17:27:44.527Z,9.00
2023-07-18T17:30:12.903Z,10.40
2023-07-18T17:32:41.174Z,11.00
2023-07-18T17:35:10.385Z,9.20
2023-07-18T17:37:41.418Z,8.80
2023-07-18T17:40:12.936Z,8.50
2023-07-18T17:42:43.911Z,9.70
2023-07-18T17:45:13.229Z,9.70
2023-07-18T17:47:42.052Z,9.90
2023-07-18T17:50:11.402Z,9.30
2023-07-18T17:52:40.708Z,10.10
2023-07-18T17:55:12.584Z,9.20
2023-07-18T17:57:40.910Z,10.30
2023-07-18T18:00:10.176Z,10.60
2023-07-18T18:02:38.313Z,11.60
2023-07-18T18:05:35.772Z,10.30
2023-07-18T18:08:08.457Z,11.30
2023-07-18T18:10:36.481Z,12.20
2023-07-18T18:13:04.850Z,11.20
2023-07-18T18:15:33.171Z,11.60
2023-07-18T18:18:02.418Z,10.70
2023-07-18T18:20:30.642Z,10.20
2023-07-18T18:22:59.108Z,9.40
2023-07-18T18:27:56.783Z,12.30
2023-07-18T18:30:25.162Z,10.50
2023-07-18T18:32:54.184Z,11.80
2023-07-18T18:37:50.134Z,12.30
2023-07-18T18:40:18.910Z,10.20
2023-07-18T18:42:47.839Z,11.30
2023-07-18T18:45:16.898Z,11.70
2023-07-18T18:50:17.044Z,9.70
2023-07-18T18:52:48.406Z,11.40
2023-07-18T18:55:20.248Z,10.40
2023-07-18T18:57:49.137Z,11.20
2023-07-18T19:00:18.761Z,11.80
2023-07-18T19:02:47.111Z,8.90
2023-07-18T19:05:15.461Z,8.60
2023-07-18T19:07:43.576Z,8.90
2023-07-18T19:10:11.778Z,11.40
2023-07-18T19:12:40.439Z,10.10
2023-07-18T19:15:09.095Z,10.00
2023-07-18T19:17:37.273Z,10.60
2023-07-18T19:20:06.127Z,9.70
2023-07-18T19:22:34.442Z,9.30
2023-07-18T19:25:03.510Z,11.80
2023-07-18T19:27:31.819Z,13.70
2023-07-18T19:30:00.282Z,13.70
2023-07-18T19:32:28.745Z,12.40
2023-07-18T19:34:57.425Z,23.20
2023-07-18T19:37:25.499Z,22.30
2023-07-18T19:39:53.827Z,16.90
2023-07-18T19:42:21.921Z,18.70
2023-07-18T19:44:50.031Z,16.90
2023-07-18T19:47:18.063Z,20.70
2023-07-18T19:49:46.489Z,17.10
2023-07-18T19:52:15.502Z,13.80
2023-07-18T19:57:11.699Z,18.90
2023-07-18T19:59:39.880Z,17.60
2023-07-18T20:02:08.298Z,15.50
2023-07-18T20:04:36.505Z,15.00
2023-07-18T20:07:05.831Z,15.40
2023-07-18T20:12:02.761Z,12.50
2023-07-18T20:14:30.997Z,16.70
2023-07-18T20:16:59.146Z,11.60
2023-07-18T20:19:28.161Z,15.50
2023-07-18T20:21:56.206Z,11.20
2023-07-18T20:24:24.268Z,11.60
2023-07-18T20:26:52.274Z,13.10
2023-07-18T20:29:20.542Z,13.40
2023-07-18T20:31:48.732Z,13.60
2023-07-18T20:34:16.868Z,13.00
2023-07-18T20:36:44.856Z,12.00
2023-07-18T20:39:12.963Z,14.60
2023-07-18T20:41:41.199Z,12.00
2023-07-18T20:44:09.447Z,12.70
2023-07-18T20:46:37.757Z,14.20
2023-07-18T20:49:06.407Z,12.90
2023-07-18T20:51:34.607Z,11.00
2023-07-18T20:54:05.389Z,11.20
2023-07-18T20:56:35.267Z,13.50
2023-07-18T21:01:35.245Z,14.80
2023-07-18T21:04:03.674Z,17.60
2023-07-18T21:06:31.914Z,13.90
2023-07-18T21:09:01.376Z,15.00
2023-07-18T21:11:29.644Z,12.80
2023-07-18T21:13:57.670Z,14.50
2023-07-18T21:16:25.743Z,13.70
2023-07-18T21:18:54.033Z,13.90
2023-07-18T21:21:22.551Z,13.20
2023-07-18T21:26:24.312Z,12.30
2023-07-18T21:29:03.882Z,14.70
2023-07-18T21:31:34.168Z,16.00
2023-07-18T21:34:04.647Z,15.30
2023-07-18T21:36:32.836Z,14.80
2023-07-18T21:39:01.303Z,14.10
2023-07-18T21:41:32.949Z,16.10
2023-07-18T21:44:02.869Z,16.30
2023-07-18T21:46:31.371Z,14.60
2023-07-18T21:48:59.382Z,14.90
2023-07-18T21:51:27.868Z,17.10
2023-07-18T21:53:57.102Z,21.40
2023-07-18T21:56:25.224Z,13.90
2023-07-18T21:58:53.245Z,14.20
2023-07-18T22:01:21.672Z,12.50
2023-07-18T22:03:50.000Z,13.90
2023-07-18T22:06:18.249Z,14.00
2023-07-18T22:08:46.844Z,17.20
2023-07-18T22:11:14.989Z,13.20
2023-07-18T22:13:43.595Z,14.10
2023-07-18T22:16:12.154Z,14.50
2023-07-18T22:18:40.474Z,13.70
2023-07-18T22:21:08.624Z,17.80
2023-07-18T22:23:36.733Z,19.40
2023-07-18T22:26:14.141Z,14.80
2023-07-18T22:28:43.564Z,14.90
2023-07-18T22:33:40.820Z,15.00
2023-07-18T22:36:09.356Z,14.60
2023-07-18T22:38:37.410Z,14.90
2023-07-18T22:41:05.438Z,14.80
2023-07-18T22:43:33.764Z,14.40
2023-07-18T22:46:02.047Z,14.60
2023-07-18T22:48:30.323Z,14.20
2023-07-18T22:50:59.100Z,14.20
2023-07-18T22:55:55.313Z,18.90
2023-07-18T22:58:23.377Z,13.20
2023-07-18T23:00:51.877Z,15.10
2023-07-18T23:03:20.100Z,15.00
2023-07-18T23:05:48.321Z,12.40
2023-07-18T23:08:16.548Z,11.90
2023-07-18T23:10:44.848Z,14.90
2023-07-18T23:13:15.271Z,12.30
2023-07-18T23:15:44.639Z,13.90
2023-07-18T23:18:13.074Z,17.80
2023-07-18T23:20:41.761Z,12.40
2023-07-18T23:23:09.961Z,13.90
2023-07-18T23:25:38.791Z,14.80
2023-07-18T23:30:35.267Z,19.70
2023-07-18T23:33:03.660Z,15.10
2023-07-18T23:35:32.035Z,17.00
2023-07-18T23:38:00.236Z,15.90
2023-07-18T23:40:28.252Z,14.10
2023-07-18T23:42:56.417Z,14.60
2023-07-18T23:45:24.602Z,13.20
2023-07-18T23:47:52.611Z,13.30
2023-07-18T23:50:20.697Z,15.30
2023-07-18T23:52:48.726Z,15.90
2023-07-18T23:55:17.150Z,14.00
2023-07-18T23:57:45.745Z,15.90
